sensor_id;sensor_type;location;lat;lon;timestamp;P1;durP1;ratioP1;P2;durP2;ratioP2
65998;SDS011;52766;56.008;37.440;2022-08-19T00:01:43;13.77;;;7.22;;
65998;SDS011;52766;56.008;37.440;2022-08-19T00:04:11;13.38;;;7.30;;
65998;SDS011;52766;56.008;37.440;2022-08-19T00:06:40;17.17;;;7.90;;
65998;SDS011;52766;56.008;37.440;2022-08-19T00:09:07;16.27;;;7.32;;
65998;SDS011;52766;56.008;37.440;2022-08-19T00:11:35;14.15;;;7.68;;
65998;SDS011;52766;56.008;37.440;2022-08-19T00:14:03;14.45;;;7.30;;
65998;SDS011;52766;56.008;37.440;2022-08-19T00:16:30;13.07;;;8.13;;
65998;SDS011;52766;56.008;37.440;2022-08-19T00:18:56;16.35;;;7.53;;
65998;SDS011;52766;56.008;37.440;2022-08-19T00:21:22;11.65;;;7.63;;
65998;SDS011;52766;56.008;37.440;2022-08-19T00:23:49;13.48;;;8.35;;
65998;SDS011;52766;56.008;37.440;2022-08-19T00:26:15;17.08;;;8.23;;
65998;SDS011;52766;56.008;37.440;2022-08-19T00:28:41;16.40;;;8.25;;
65998;SDS011;52766;56.008;37.440;2022-08-19T00:31:08;13.95;;;8.15;;
65998;SDS011;52766;56.008;37.440;2022-08-19T00:33:34;14.15;;;7.88;;
65998;SDS011;52766;56.008;37.440;2022-08-19T00:36:02;18.48;;;7.70;;
65998;SDS011;52766;56.008;37.440;2022-08-19T00:38:30;12.20;;;7.65;;
65998;SDS011;52766;56.008;37.440;2022-08-19T00:40:57;12.23;;;7.30;;
65998;SDS011;52766;56.008;37.440;2022-08-19T00:43:24;16.67;;;7.82;;
65998;SDS011;52766;56.008;37.440;2022-08-19T00:45:52;14.43;;;6.53;;
65998;SDS011;52766;56.008;37.440;2022-08-19T00:48:18;12.35;;;6.25;;
65998;SDS011;52766;56.008;37.440;2022-08-19T00:50:46;12.10;;;6.78;;
65998;SDS011;52766;56.008;37.440;2022-08-19T00:53:14;10.90;;;6.53;;
65998;SDS011;52766;56.008;37.440;2022-08-19T00:55:46;17.23;;;6.97;;
65998;SDS011;52766;56.008;37.440;2022-08-19T00:58:15;10.15;;;5.43;;
65998;SDS011;52766;56.008;37.440;2022-08-19T01:00:42;14.18;;;5.45;;
65998;SDS011;52766;56.008;37.440;2022-08-19T01:03:13;10.63;;;6.47;;
65998;SDS011;52766;56.008;37.440;2022-08-19T01:05:42;9.88;;;5.60;;
65998;SDS011;52766;56.008;37.440;2022-08-19T01:08:09;14.57;;;6.30;;
65998;SDS011;52766;56.008;37.440;2022-08-19T01:10:40;10.93;;;5.50;;
65998;SDS011;52766;56.008;37.440;2022-08-19T01:13:08;9.30;;;5.80;;
65998;SDS011;52766;56.008;37.440;2022-08-19T01:15:42;10.88;;;5.30;;
65998;SDS011;52766;56.008;37.440;2022-08-19T01:18:11;10.85;;;4.80;;
65998;SDS011;52766;56.008;37.440;2022-08-19T01:20:39;9.98;;;5.25;;
65998;SDS011;52766;56.008;37.440;2022-08-19T01:23:05;10.20;;;4.72;;
65998;SDS011;52766;56.008;37.440;2022-08-19T01:25:35;11.02;;;5.60;;
65998;SDS011;52766;56.008;37.440;2022-08-19T01:28:06;12.90;;;5.40;;
65998;SDS011;52766;56.008;37.440;2022-08-19T01:30:33;9.88;;;4.60;;
65998;SDS011;52766;56.008;37.440;2022-08-19T01:33:00;12.38;;;5.22;;
65998;SDS011;52766;56.008;37.440;2022-08-19T01:35:28;10.27;;;5.60;;
65998;SDS011;52766;56.008;37.440;2022-08-19T01:37:57;9.57;;;5.32;;
65998;SDS011;52766;56.008;37.440;2022-08-19T01:40:29;12.55;;;5.25;;
65998;SDS011;52766;56.008;37.440;2022-08-19T01:42:56;9.95;;;4.82;;
65998;SDS011;52766;56.008;37.440;2022-08-19T01:45:23;10.65;;;4.85;;
65998;SDS011;52766;56.008;37.440;2022-08-19T01:47:51;8.55;;;4.68;;
65998;SDS011;52766;56.008;37.440;2022-08-19T01:50:17;9.80;;;4.82;;
65998;SDS011;52766;56.008;37.440;2022-08-19T01:52:43;9.52;;;4.65;;
65998;SDS011;52766;56.008;37.440;2022-08-19T01:55:12;10.15;;;4.80;;
65998;SDS011;52766;56.008;37.440;2022-08-19T02:00:08;8.10;;;4.18;;
65998;SDS011;52766;56.008;37.440;2022-08-19T02:02:38;8.90;;;4.15;;
65998;SDS011;52766;56.008;37.440;2022-08-19T02:05:05;8.75;;;4.65;;
65998;SDS011;52766;56.008;37.440;2022-08-19T02:07:33;12.15;;;4.65;;
65998;SDS011;52766;56.008;37.440;2022-08-19T02:10:01;8.88;;;4.68;;
65998;SDS011;52766;56.008;37.440;2022-08-19T02:12:32;8.30;;;4.18;;
65998;SDS011;52766;56.008;37.440;2022-08-19T02:14:58;10.90;;;4.57;;
65998;SDS011;52766;56.008;37.440;2022-08-19T02:17:24;9.70;;;4.63;;
65998;SDS011;52766;56.008;37.440;2022-08-19T02:19:50;8.27;;;4.88;;
65998;SDS011;52766;56.008;37.440;2022-08-19T02:22:16;8.68;;;4.90;;
65998;SDS011;52766;56.008;37.440;2022-08-19T02:24:42;9.18;;;4.95;;
65998;SDS011;52766;56.008;37.440;2022-08-19T02:27:08;9.07;;;4.45;;
65998;SDS011;52766;56.008;37.440;2022-08-19T02:29:34;8.88;;;4.85;;
65998;SDS011;52766;56.008;37.440;2022-08-19T02:32:00;9.55;;;4.00;;
65998;SDS011;52766;56.008;37.440;2022-08-19T02:34:27;8.57;;;4.38;;
65998;SDS011;52766;56.008;37.440;2022-08-19T02:36:52;11.63;;;4.45;;
65998;SDS011;52766;56.008;37.440;2022-08-19T02:39:18;10.45;;;4.50;;
65998;SDS011;52766;56.008;37.440;2022-08-19T02:41:44;10.48;;;3.90;;
65998;SDS011;52766;56.008;37.440;2022-08-19T02:44:10;8.85;;;3.88;;
65998;SDS011;52766;56.008;37.440;2022-08-19T02:46:37;11.75;;;4.40;;
65998;SDS011;52766;56.008;37.440;2022-08-19T02:49:05;11.07;;;4.18;;
65998;SDS011;52766;56.008;37.440;2022-08-19T02:51:33;10.07;;;4.40;;
65998;SDS011;52766;56.008;37.440;2022-08-19T02:54:01;9.95;;;4.28;;
65998;SDS011;52766;56.008;37.440;2022-08-19T02:56:27;10.52;;;4.20;;
65998;SDS011;52766;56.008;37.440;2022-08-19T02:58:54;10.07;;;4.43;;
65998;SDS011;52766;56.008;37.440;2022-08-19T03:01:30;7.30;;;4.50;;
65998;SDS011;52766;56.008;37.440;2022-08-19T03:03:58;8.50;;;4.18;;
65998;SDS011;52766;56.008;37.440;2022-08-19T03:06:25;11.25;;;4.55;;
65998;SDS011;52766;56.008;37.440;2022-08-19T03:08:52;8.80;;;3.63;;
65998;SDS011;52766;56.008;37.440;2022-08-19T03:11:20;7.80;;;4.30;;
65998;SDS011;52766;56.008;37.440;2022-08-19T03:13:48;6.43;;;3.75;;
65998;SDS011;52766;56.008;37.440;2022-08-19T03:16:16;6.38;;;3.88;;
65998;SDS011;52766;56.008;37.440;2022-08-19T03:18:43;5.88;;;3.53;;
65998;SDS011;52766;56.008;37.440;2022-08-19T03:21:16;9.02;;;3.92;;
65998;SDS011;52766;56.008;37.440;2022-08-19T03:23:43;8.82;;;4.18;;
65998;SDS011;52766;56.008;37.440;2022-08-19T03:26:09;10.40;;;4.15;;
65998;SDS011;52766;56.008;37.440;2022-08-19T03:28:35;7.68;;;4.18;;
65998;SDS011;52766;56.008;37.440;2022-08-19T03:31:03;7.63;;;3.80;;
65998;SDS011;52766;56.008;37.440;2022-08-19T03:33:32;8.50;;;3.65;;
65998;SDS011;52766;56.008;37.440;2022-08-19T03:36:09;9.48;;;3.92;;
65998;SDS011;52766;56.008;37.440;2022-08-19T03:38:41;7.65;;;3.75;;
65998;SDS011;52766;56.008;37.440;2022-08-19T03:41:10;6.97;;;3.60;;
65998;SDS011;52766;56.008;37.440;2022-08-19T03:43:40;7.43;;;3.60;;
65998;SDS011;52766;56.008;37.440;2022-08-19T03:46:10;7.63;;;3.90;;
65998;SDS011;52766;56.008;37.440;2022-08-19T03:48:37;10.50;;;3.83;;
65998;SDS011;52766;56.008;37.440;2022-08-19T03:51:05;7.60;;;3.70;;
65998;SDS011;52766;56.008;37.440;2022-08-19T03:53:32;6.03;;;4.05;;
65998;SDS011;52766;56.008;37.440;2022-08-19T03:55:59;6.63;;;3.60;;
65998;SDS011;52766;56.008;37.440;2022-08-19T03:58:26;6.65;;;3.42;;
65998;SDS011;52766;56.008;37.440;2022-08-19T04:00:56;7.28;;;3.20;;
65998;SDS011;52766;56.008;37.440;2022-08-19T04:03:24;10.18;;;3.78;;
65998;SDS011;52766;56.008;37.440;2022-08-19T04:05:53;9.30;;;3.72;;
65998;SDS011;52766;56.008;37.440;2022-08-19T04:08:19;8.40;;;3.38;;
65998;SDS011;52766;56.008;37.440;2022-08-19T04:10:47;7.20;;;3.55;;
65998;SDS011;52766;56.008;37.440;2022-08-19T04:13:14;6.43;;;3.25;;
65998;SDS011;52766;56.008;37.440;2022-08-19T04:15:42;10.63;;;3.63;;
65998;SDS011;52766;56.008;37.440;2022-08-19T04:18:10;6.93;;;3.67;;
65998;SDS011;52766;56.008;37.440;2022-08-19T04:20:40;6.22;;;3.53;;
65998;SDS011;52766;56.008;37.440;2022-08-19T04:23:13;6.57;;;3.55;;
65998;SDS011;52766;56.008;37.440;2022-08-19T04:25:40;6.70;;;3.25;;
65998;SDS011;52766;56.008;37.440;2022-08-19T04:28:10;6.18;;;3.67;;
65998;SDS011;52766;56.008;37.440;2022-08-19T04:30:41;10.27;;;3.75;;
65998;SDS011;52766;56.008;37.440;2022-08-19T04:33:21;7.25;;;3.33;;
65998;SDS011;52766;56.008;37.440;2022-08-19T04:35:49;8.07;;;3.00;;
65998;SDS011;52766;56.008;37.440;2022-08-19T04:38:19;5.10;;;3.00;;
65998;SDS011;52766;56.008;37.440;2022-08-19T04:40:48;9.38;;;3.25;;
65998;SDS011;52766;56.008;37.440;2022-08-19T04:43:35;6.22;;;3.33;;
65998;SDS011;52766;56.008;37.440;2022-08-19T04:46:07;7.00;;;3.53;;
65998;SDS011;52766;56.008;37.440;2022-08-19T04:48:36;6.97;;;3.22;;
65998;SDS011;52766;56.008;37.440;2022-08-19T04:51:05;10.07;;;3.88;;
65998;SDS011;52766;56.008;37.440;2022-08-19T04:53:32;5.70;;;3.33;;
65998;SDS011;52766;56.008;37.440;2022-08-19T04:56:03;5.70;;;3.38;;
65998;SDS011;52766;56.008;37.440;2022-08-19T04:58:31;9.05;;;4.63;;
65998;SDS011;52766;56.008;37.440;2022-08-19T05:01:00;9.80;;;3.40;;
65998;SDS011;52766;56.008;37.440;2022-08-19T05:03:26;5.88;;;3.33;;
65998;SDS011;52766;56.008;37.440;2022-08-19T05:06:05;8.48;;;4.00;;
65998;SDS011;52766;56.008;37.440;2022-08-19T05:08:33;9.27;;;3.40;;
65998;SDS011;52766;56.008;37.440;2022-08-19T05:11:01;8.60;;;3.47;;
65998;SDS011;52766;56.008;37.440;2022-08-19T05:13:37;6.88;;;3.80;;
65998;SDS011;52766;56.008;37.440;2022-08-19T05:16:03;10.27;;;3.90;;
65998;SDS011;52766;56.008;37.440;2022-08-19T05:18:30;6.75;;;3.75;;
65998;SDS011;52766;56.008;37.440;2022-08-19T05:21:16;8.15;;;3.47;;
65998;SDS011;52766;56.008;37.440;2022-08-19T05:24:02;8.60;;;3.78;;
65998;SDS011;52766;56.008;37.440;2022-08-19T05:26:33;9.43;;;3.90;;
65998;SDS011;52766;56.008;37.440;2022-08-19T05:28:59;8.88;;;3.95;;
65998;SDS011;52766;56.008;37.440;2022-08-19T05:31:25;6.88;;;3.42;;
65998;SDS011;52766;56.008;37.440;2022-08-19T05:33:51;8.70;;;4.40;;
65998;SDS011;52766;56.008;37.440;2022-08-19T05:36:17;7.25;;;3.75;;
65998;SDS011;52766;56.008;37.440;2022-08-19T05:38:45;7.88;;;3.38;;
65998;SDS011;52766;56.008;37.440;2022-08-19T05:41:13;7.57;;;3.75;;
65998;SDS011;52766;56.008;37.440;2022-08-19T05:43:40;9.95;;;4.25;;
65998;SDS011;52766;56.008;37.440;2022-08-19T05:46:07;11.05;;;4.00;;
65998;SDS011;52766;56.008;37.440;2022-08-19T05:48:37;8.07;;;3.63;;
65998;SDS011;52766;56.008;37.440;2022-08-19T05:51:06;6.45;;;3.70;;
65998;SDS011;52766;56.008;37.440;2022-08-19T05:53:34;7.93;;;3.63;;
65998;SDS011;52766;56.008;37.440;2022-08-19T05:56:07;7.38;;;3.97;;
65998;SDS011;52766;56.008;37.440;2022-08-19T05:58:35;8.82;;;3.83;;
65998;SDS011;52766;56.008;37.440;2022-08-19T06:01:03;8.63;;;4.13;;
65998;SDS011;52766;56.008;37.440;2022-08-19T06:03:34;8.18;;;3.83;;
65998;SDS011;52766;56.008;37.440;2022-08-19T06:06:01;8.93;;;3.92;;
65998;SDS011;52766;56.008;37.440;2022-08-19T06:08:28;5.63;;;3.72;;
65998;SDS011;52766;56.008;37.440;2022-08-19T06:10:55;7.88;;;3.80;;
65998;SDS011;52766;56.008;37.440;2022-08-19T06:13:21;8.88;;;3.97;;
65998;SDS011;52766;56.008;37.440;2022-08-19T06:15:48;6.85;;;4.07;;
65998;SDS011;52766;56.008;37.440;2022-08-19T06:18:14;8.25;;;3.90;;
65998;SDS011;52766;56.008;37.440;2022-08-19T06:20:45;9.00;;;3.72;;
65998;SDS011;52766;56.008;37.440;2022-08-19T06:23:11;8.63;;;4.10;;
65998;SDS011;52766;56.008;37.440;2022-08-19T06:25:38;8.32;;;4.47;;
65998;SDS011;52766;56.008;37.440;2022-08-19T06:28:05;8.18;;;3.95;;
65998;SDS011;52766;56.008;37.440;2022-08-19T06:30:35;10.77;;;4.13;;
65998;SDS011;52766;56.008;37.440;2022-08-19T06:33:02;8.13;;;4.63;;
65998;SDS011;52766;56.008;37.440;2022-08-19T06:35:28;7.30;;;3.90;;
65998;SDS011;52766;56.008;37.440;2022-08-19T06:37:55;8.70;;;4.38;;
65998;SDS011;52766;56.008;37.440;2022-08-19T06:40:21;8.80;;;4.28;;
65998;SDS011;52766;56.008;37.440;2022-08-19T06:42:47;12.05;;;4.22;;
65998;SDS011;52766;56.008;37.440;2022-08-19T06:45:13;8.57;;;4.03;;
65998;SDS011;52766;56.008;37.440;2022-08-19T06:47:40;7.28;;;4.32;;
65998;SDS011;52766;56.008;37.440;2022-08-19T06:50:09;9.93;;;4.60;;
65998;SDS011;52766;56.008;37.440;2022-08-19T06:52:35;7.90;;;4.20;;
65998;SDS011;52766;56.008;37.440;2022-08-19T06:55:01;7.85;;;3.90;;
65998;SDS011;52766;56.008;37.440;2022-08-19T06:57:28;7.57;;;4.15;;
65998;SDS011;52766;56.008;37.440;2022-08-19T06:59:58;10.63;;;4.47;;
65998;SDS011;52766;56.008;37.440;2022-08-19T07:02:25;5.75;;;4.55;;
65998;SDS011;52766;56.008;37.440;2022-08-19T07:04:52;12.75;;;4.70;;
65998;SDS011;52766;56.008;37.440;2022-08-19T07:07:18;6.03;;;4.50;;
65998;SDS011;52766;56.008;37.440;2022-08-19T07:09:45;10.10;;;4.50;;
65998;SDS011;52766;56.008;37.440;2022-08-19T07:12:13;12.15;;;4.90;;
65998;SDS011;52766;56.008;37.440;2022-08-19T07:14:42;11.25;;;4.65;;
65998;SDS011;52766;56.008;37.440;2022-08-19T07:17:11;9.45;;;5.03;;
65998;SDS011;52766;56.008;37.440;2022-08-19T07:19:40;10.65;;;4.40;;
65998;SDS011;52766;56.008;37.440;2022-08-19T07:22:08;9.38;;;4.57;;
65998;SDS011;52766;56.008;37.440;2022-08-19T07:24:34;10.07;;;4.65;;
65998;SDS011;52766;56.008;37.440;2022-08-19T07:27:02;9.32;;;4.63;;
65998;SDS011;52766;56.008;37.440;2022-08-19T07:29:30;11.88;;;5.10;;
65998;SDS011;52766;56.008;37.440;2022-08-19T07:31:59;8.63;;;4.63;;
65998;SDS011;52766;56.008;37.440;2022-08-19T07:34:26;11.13;;;4.72;;
65998;SDS011;52766;56.008;37.440;2022-08-19T07:36:54;7.97;;;4.53;;
65998;SDS011;52766;56.008;37.440;2022-08-19T07:39:25;10.85;;;3.97;;
65998;SDS011;52766;56.008;37.440;2022-08-19T07:41:56;8.52;;;4.30;;
65998;SDS011;52766;56.008;37.440;2022-08-19T07:44:24;8.25;;;4.20;;
65998;SDS011;52766;56.008;37.440;2022-08-19T07:46:52;13.80;;;4.63;;
65998;SDS011;52766;56.008;37.440;2022-08-19T07:49:21;11.27;;;4.90;;
65998;SDS011;52766;56.008;37.440;2022-08-19T07:51:51;10.05;;;4.75;;
65998;SDS011;52766;56.008;37.440;2022-08-19T07:54:21;8.05;;;4.88;;
65998;SDS011;52766;56.008;37.440;2022-08-19T07:56:48;11.52;;;5.10;;
65998;SDS011;52766;56.008;37.440;2022-08-19T07:59:17;8.95;;;4.30;;
65998;SDS011;52766;56.008;37.440;2022-08-19T08:01:45;9.18;;;5.00;;
65998;SDS011;52766;56.008;37.440;2022-08-19T08:04:11;8.15;;;4.90;;
65998;SDS011;52766;56.008;37.440;2022-08-19T08:06:57;10.27;;;4.75;;
65998;SDS011;52766;56.008;37.440;2022-08-19T08:09:51;9.30;;;4.13;;
65998;SDS011;52766;56.008;37.440;2022-08-19T08:15:56;10.50;;;5.00;;
65998;SDS011;52766;56.008;37.440;2022-08-19T08:18:23;6.38;;;3.85;;
65998;SDS011;52766;56.008;37.440;2022-08-19T08:20:50;11.55;;;6.40;;
65998;SDS011;52766;56.008;37.440;2022-08-19T08:23:16;10.10;;;3.58;;
65998;SDS011;52766;56.008;37.440;2022-08-19T08:25:53;7.65;;;4.03;;
65998;SDS011;52766;56.008;37.440;2022-08-19T08:28:21;8.73;;;3.40;;
65998;SDS011;52766;56.008;37.440;2022-08-19T08:30:48;9.05;;;3.70;;
65998;SDS011;52766;56.008;37.440;2022-08-19T08:33:19;7.20;;;3.63;;
65998;SDS011;52766;56.008;37.440;2022-08-19T08:35:47;7.03;;;3.55;;
65998;SDS011;52766;56.008;37.440;2022-08-19T08:38:14;8.32;;;3.75;;
65998;SDS011;52766;56.008;37.440;2022-08-19T08:40:48;10.90;;;4.50;;
65998;SDS011;52766;56.008;37.440;2022-08-19T08:46:08;9.48;;;3.60;;
65998;SDS011;52766;56.008;37.440;2022-08-19T08:49:25;7.35;;;3.38;;
65998;SDS011;52766;56.008;37.440;2022-08-19T09:02:21;6.60;;;3.40;;
65998;SDS011;52766;56.008;37.440;2022-08-19T09:05:08;8.38;;;3.50;;
65998;SDS011;52766;56.008;37.440;2022-08-19T09:07:52;11.68;;;5.50;;
65998;SDS011;52766;56.008;37.440;2022-08-19T09:11:14;7.25;;;3.88;;
65998;SDS011;52766;56.008;37.440;2022-08-19T09:20:33;8.48;;;3.55;;
65998;SDS011;52766;56.008;37.440;2022-08-19T09:24:01;13.13;;;4.13;;
65998;SDS011;52766;56.008;37.440;2022-08-19T09:26:31;4.85;;;2.88;;
65998;SDS011;52766;56.008;37.440;2022-08-19T09:29:44;8.07;;;3.45;;
65998;SDS011;52766;56.008;37.440;2022-08-19T09:32:30;6.82;;;3.42;;
65998;SDS011;52766;56.008;37.440;2022-08-19T09:35:06;6.85;;;3.50;;
65998;SDS011;52766;56.008;37.440;2022-08-19T09:37:36;7.93;;;3.72;;
65998;SDS011;52766;56.008;37.440;2022-08-19T09:40:24;7.85;;;3.83;;
65998;SDS011;52766;56.008;37.440;2022-08-19T09:43:47;10.13;;;4.88;;
65998;SDS011;52766;56.008;37.440;2022-08-19T09:47:10;12.27;;;3.97;;
65998;SDS011;52766;56.008;37.440;2022-08-19T09:50:14;11.32;;;4.38;;
65998;SDS011;52766;56.008;37.440;2022-08-19T09:52:46;8.77;;;4.28;;
65998;SDS011;52766;56.008;37.440;2022-08-19T09:55:15;9.40;;;4.35;;
65998;SDS011;52766;56.008;37.440;2022-08-19T09:58:01;6.78;;;4.32;;
65998;SDS011;52766;56.008;37.440;2022-08-19T10:00:39;7.97;;;3.83;;
65998;SDS011;52766;56.008;37.440;2022-08-19T10:03:34;8.60;;;4.30;;
65998;SDS011;52766;56.008;37.440;2022-08-19T10:06:02;11.65;;;4.38;;
65998;SDS011;52766;56.008;37.440;2022-08-19T10:09:17;9.65;;;4.63;;
65998;SDS011;52766;56.008;37.440;2022-08-19T10:12:36;7.65;;;4.28;;
65998;SDS011;52766;56.008;37.440;2022-08-19T10:15:56;10.60;;;4.50;;
65998;SDS011;52766;56.008;37.440;2022-08-19T10:23:29;7.75;;;4.72;;
65998;SDS011;52766;56.008;37.440;2022-08-19T10:26:40;11.63;;;4.78;;
65998;SDS011;52766;56.008;37.440;2022-08-19T10:30:03;8.65;;;3.83;;
65998;SDS011;52766;56.008;37.440;2022-08-19T10:32:45;8.13;;;3.97;;
65998;SDS011;52766;56.008;37.440;2022-08-19T10:36:00;10.15;;;4.82;;
65998;SDS011;52766;56.008;37.440;2022-08-19T10:38:53;12.10;;;5.15;;
65998;SDS011;52766;56.008;37.440;2022-08-19T10:41:38;8.88;;;4.80;;
65998;SDS011;52766;56.008;37.440;2022-08-19T10:44:32;9.07;;;4.30;;
65998;SDS011;52766;56.008;37.440;2022-08-19T10:47:28;9.77;;;5.15;;
65998;SDS011;52766;56.008;37.440;2022-08-19T10:50:17;8.68;;;4.10;;
65998;SDS011;52766;56.008;37.440;2022-08-19T10:53:10;8.65;;;3.50;;
65998;SDS011;52766;56.008;37.440;2022-08-19T10:56:54;8.07;;;3.45;;
65998;SDS011;52766;56.008;37.440;2022-08-19T10:59:35;11.13;;;3.60;;
65998;SDS011;52766;56.008;37.440;2022-08-19T11:03:14;8.30;;;3.70;;
65998;SDS011;52766;56.008;37.440;2022-08-19T11:06:02;9.38;;;3.67;;
65998;SDS011;52766;56.008;37.440;2022-08-19T11:08:47;9.18;;;3.50;;
65998;SDS011;52766;56.008;37.440;2022-08-19T11:11:53;8.93;;;4.20;;
65998;SDS011;52766;56.008;37.440;2022-08-19T11:14:48;10.85;;;3.83;;
65998;SDS011;52766;56.008;37.440;2022-08-19T11:17:18;14.27;;;4.18;;
65998;SDS011;52766;56.008;37.440;2022-08-19T11:20:33;7.50;;;3.42;;
65998;SDS011;52766;56.008;37.440;2022-08-19T11:23:19;11.70;;;4.40;;
65998;SDS011;52766;56.008;37.440;2022-08-19T11:25:55;9.23;;;3.95;;
65998;SDS011;52766;56.008;37.440;2022-08-19T11:28:33;8.10;;;3.78;;
65998;SDS011;52766;56.008;37.440;2022-08-19T11:31:08;8.95;;;4.13;;
65998;SDS011;52766;56.008;37.440;2022-08-19T11:34:19;7.60;;;4.07;;
65998;SDS011;52766;56.008;37.440;2022-08-19T11:37:10;10.25;;;4.22;;
65998;SDS011;52766;56.008;37.440;2022-08-19T11:40:14;10.68;;;4.65;;
65998;SDS011;52766;56.008;37.440;2022-08-19T11:42:40;9.57;;;4.70;;
65998;SDS011;52766;56.008;37.440;2022-08-19T11:45:50;12.57;;;4.50;;
65998;SDS011;52766;56.008;37.440;2022-08-19T11:48:48;6.05;;;3.85;;
65998;SDS011;52766;56.008;37.440;2022-08-19T11:51:23;6.28;;;3.35;;
65998;SDS011;52766;56.008;37.440;2022-08-19T11:53:54;8.07;;;3.55;;
65998;SDS011;52766;56.008;37.440;2022-08-19T12:00:36;5.90;;;3.58;;
65998;SDS011;52766;56.008;37.440;2022-08-19T12:04:12;5.60;;;3.40;;
65998;SDS011;52766;56.008;37.440;2022-08-19T12:07:47;13.02;;;3.67;;
65998;SDS011;52766;56.008;37.440;2022-08-19T12:11:05;6.70;;;3.30;;
65998;SDS011;52766;56.008;37.440;2022-08-19T12:14:28;6.70;;;3.25;;
65998;SDS011;52766;56.008;37.440;2022-08-19T12:18:00;9.32;;;4.00;;
65998;SDS011;52766;56.008;37.440;2022-08-19T12:21:07;5.40;;;3.45;;
65998;SDS011;52766;56.008;37.440;2022-08-19T12:42:33;9.07;;;3.75;;
65998;SDS011;52766;56.008;37.440;2022-08-19T12:45:11;4.80;;;2.85;;
65998;SDS011;52766;56.008;37.440;2022-08-19T12:48:45;9.35;;;3.42;;
65998;SDS011;52766;56.008;37.440;2022-08-19T12:52:00;5.57;;;3.58;;
65998;SDS011;52766;56.008;37.440;2022-08-19T12:55:28;12.85;;;3.78;;
65998;SDS011;52766;56.008;37.440;2022-08-19T12:58:38;12.30;;;3.90;;
65998;SDS011;52766;56.008;37.440;2022-08-19T13:02:25;8.25;;;3.78;;
65998;SDS011;52766;56.008;37.440;2022-08-19T13:05:16;7.50;;;3.67;;
65998;SDS011;52766;56.008;37.440;2022-08-19T13:07:46;7.93;;;4.15;;
65998;SDS011;52766;56.008;37.440;2022-08-19T13:10:13;6.38;;;3.55;;
65998;SDS011;52766;56.008;37.440;2022-08-19T13:12:43;5.50;;;3.10;;
65998;SDS011;52766;56.008;37.440;2022-08-19T13:15:10;7.63;;;3.53;;
65998;SDS011;52766;56.008;37.440;2022-08-19T13:17:37;7.05;;;4.20;;
65998;SDS011;52766;56.008;37.440;2022-08-19T13:20:04;12.05;;;5.35;;
65998;SDS011;52766;56.008;37.440;2022-08-19T13:22:33;10.32;;;4.80;;
65998;SDS011;52766;56.008;37.440;2022-08-19T13:25:02;9.48;;;4.50;;
65998;SDS011;52766;56.008;37.440;2022-08-19T13:27:28;8.63;;;4.22;;
65998;SDS011;52766;56.008;37.440;2022-08-19T13:29:55;8.25;;;4.40;;
65998;SDS011;52766;56.008;37.440;2022-08-19T13:32:41;10.05;;;4.18;;
65998;SDS011;52766;56.008;37.440;2022-08-19T13:35:26;5.93;;;3.60;;
65998;SDS011;52766;56.008;37.440;2022-08-19T13:37:55;8.65;;;4.47;;
65998;SDS011;52766;56.008;37.440;2022-08-19T13:40:51;10.30;;;4.22;;
65998;SDS011;52766;56.008;37.440;2022-08-19T13:43:20;11.93;;;4.88;;
65998;SDS011;52766;56.008;37.440;2022-08-19T13:45:48;6.50;;;4.15;;
65998;SDS011;52766;56.008;37.440;2022-08-19T13:48:21;8.13;;;4.43;;
65998;SDS011;52766;56.008;37.440;2022-08-19T13:50:49;11.65;;;4.13;;
65998;SDS011;52766;56.008;37.440;2022-08-19T13:53:17;9.35;;;4.13;;
65998;SDS011;52766;56.008;37.440;2022-08-19T13:55:48;6.22;;;3.92;;
65998;SDS011;52766;56.008;37.440;2022-08-19T13:58:15;11.98;;;4.38;;
65998;SDS011;52766;56.008;37.440;2022-08-19T14:00:43;8.35;;;4.30;;
65998;SDS011;52766;56.008;37.440;2022-08-19T14:03:13;11.07;;;4.55;;
65998;SDS011;52766;56.008;37.440;2022-08-19T14:05:41;6.88;;;4.53;;
65998;SDS011;52766;56.008;37.440;2022-08-19T14:08:14;9.73;;;3.75;;
65998;SDS011;52766;56.008;37.440;2022-08-19T14:10:41;8.00;;;3.97;;
65998;SDS011;52766;56.008;37.440;2022-08-19T14:13:10;11.63;;;5.32;;
65998;SDS011;52766;56.008;37.440;2022-08-19T14:15:38;8.50;;;4.30;;
65998;SDS011;52766;56.008;37.440;2022-08-19T14:18:06;10.85;;;5.03;;
65998;SDS011;52766;56.008;37.440;2022-08-19T14:20:35;9.35;;;4.55;;
65998;SDS011;52766;56.008;37.440;2022-08-19T14:23:02;15.57;;;4.80;;
65998;SDS011;52766;56.008;37.440;2022-08-19T14:25:32;8.43;;;4.28;;
65998;SDS011;52766;56.008;37.440;2022-08-19T14:27:59;7.68;;;4.40;;
65998;SDS011;52766;56.008;37.440;2022-08-19T14:30:28;8.32;;;3.92;;
65998;SDS011;52766;56.008;37.440;2022-08-19T14:32:56;7.13;;;3.78;;
65998;SDS011;52766;56.008;37.440;2022-08-19T14:35:27;9.30;;;4.43;;
65998;SDS011;52766;56.008;37.440;2022-08-19T14:37:55;11.45;;;4.25;;
65998;SDS011;52766;56.008;37.440;2022-08-19T14:40:24;9.88;;;4.85;;
65998;SDS011;52766;56.008;37.440;2022-08-19T14:42:53;11.65;;;5.93;;
65998;SDS011;52766;56.008;37.440;2022-08-19T14:45:26;12.02;;;4.45;;
65998;SDS011;52766;56.008;37.440;2022-08-19T14:47:53;10.43;;;4.57;;
65998;SDS011;52766;56.008;37.440;2022-08-19T14:50:21;13.05;;;4.82;;
65998;SDS011;52766;56.008;37.440;2022-08-19T14:52:48;14.98;;;4.60;;
65998;SDS011;52766;56.008;37.440;2022-08-19T14:55:16;8.25;;;5.15;;
65998;SDS011;52766;56.008;37.440;2022-08-19T14:57:44;7.35;;;4.65;;
65998;SDS011;52766;56.008;37.440;2022-08-19T15:00:11;12.68;;;4.30;;
65998;SDS011;52766;56.008;37.440;2022-08-19T15:02:39;15.20;;;5.40;;
65998;SDS011;52766;56.008;37.440;2022-08-19T15:05:07;10.40;;;4.47;;
65998;SDS011;52766;56.008;37.440;2022-08-19T15:07:37;10.50;;;4.30;;
65998;SDS011;52766;56.008;37.440;2022-08-19T15:10:04;7.90;;;4.50;;
65998;SDS011;52766;56.008;37.440;2022-08-19T15:12:33;8.25;;;4.55;;
65998;SDS011;52766;56.008;37.440;2022-08-19T15:15:02;7.00;;;4.57;;
65998;SDS011;52766;56.008;37.440;2022-08-19T15:17:31;9.45;;;4.40;;
65998;SDS011;52766;56.008;37.440;2022-08-19T15:19:57;10.98;;;4.70;;
65998;SDS011;52766;56.008;37.440;2022-08-19T15:22:24;9.02;;;4.32;;
65998;SDS011;52766;56.008;37.440;2022-08-19T15:24:54;10.50;;;4.50;;
65998;SDS011;52766;56.008;37.440;2022-08-19T15:27:22;6.25;;;4.45;;
65998;SDS011;52766;56.008;37.440;2022-08-19T15:29:52;10.38;;;4.60;;
65998;SDS011;52766;56.008;37.440;2022-08-19T15:32:18;7.95;;;4.00;;
65998;SDS011;52766;56.008;37.440;2022-08-19T15:34:49;7.40;;;4.50;;
65998;SDS011;52766;56.008;37.440;2022-08-19T15:37:17;12.68;;;3.83;;
65998;SDS011;52766;56.008;37.440;2022-08-19T15:39:51;10.90;;;4.72;;
65998;SDS011;52766;56.008;37.440;2022-08-19T15:42:20;9.88;;;4.32;;
65998;SDS011;52766;56.008;37.440;2022-08-19T15:44:54;7.47;;;3.92;;
65998;SDS011;52766;56.008;37.440;2022-08-19T15:47:22;10.13;;;4.72;;
65998;SDS011;52766;56.008;37.440;2022-08-19T15:49:50;10.95;;;4.63;;
65998;SDS011;52766;56.008;37.440;2022-08-19T15:52:19;8.98;;;4.90;;
65998;SDS011;52766;56.008;37.440;2022-08-19T15:54:46;7.70;;;4.40;;
65998;SDS011;52766;56.008;37.440;2022-08-19T15:57:14;10.95;;;5.32;;
65998;SDS011;52766;56.008;37.440;2022-08-19T15:59:46;6.97;;;4.28;;
65998;SDS011;52766;56.008;37.440;2022-08-19T16:02:32;13.73;;;5.05;;
65998;SDS011;52766;56.008;37.440;2022-08-19T16:05:19;11.05;;;5.72;;
65998;SDS011;52766;56.008;37.440;2022-08-19T16:08:08;13.95;;;5.22;;
65998;SDS011;52766;56.008;37.440;2022-08-19T16:10:41;9.80;;;5.75;;